Time;durP1;ratioP1;P1;durP2;ratioP2;P2;SDS_P1;SDS_P2;PMS_P1;PMS_P2;Temp;Humidity;BMP_temperature;BMP_pressure;BME280_temperature;BME280_humidity;BME280_pressure;Samples;Min_cycle;Max_cycle;Signal;HPM_P1;HPM_P2
2024/02/29 00:00:23;;;;;;;9.20;5.07;;;7.20;69.90;;;;;;2325592;54;21404;-65
2024/02/29 00:02:49;;;;;;;8.60;4.62;;;7.20;69.90;;;;;;2318463;54;21007;-65
2024/02/29 00:05:16;;;;;;;10.30;5.65;;;7.20;70.00;;;;;;2320494;54;21518;-65
2024/02/29 00:07:43;;;;;;;10.27;5.75;;;7.10;69.90;;;;;;2325277;54;21290;-65
2024/02/29 00:10:09;;;;;;;10.32;5.95;;;7.10;69.80;;;;;;2549013;53;21043;-66
2024/02/29 00:12:35;;;;;;;9.80;5.72;;;7.10;69.90;;;;;;2325327;54;20926;-66
2024/02/29 00:15:02;;;;;;;10.82;5.72;;;7.00;69.80;;;;;;2324971;54;21447;-66
2024/02/29 00:17:28;;;;;;;9.30;4.87;;;7.00;69.90;;;;;;2326046;54;21665;-66
2024/02/29 00:19:56;;;;;;;8.63;4.95;;;7.00;69.90;;;;;;2324908;54;21327;-66
2024/02/29 00:22:23;;;;;;;10.52;5.10;;;7.00;69.90;;;;;;2325370;54;21415;-66
2024/02/29 00:24:49;;;;;;;8.60;5.37;;;6.90;69.70;;;;;;2324410;54;21016;-65
2024/02/29 00:27:15;;;;;;;10.50;5.65;;;6.90;69.80;;;;;;2568481;53;20960;-66
2024/02/29 00:29:43;;;;;;;12.10;7.12;;;6.90;69.80;;;;;;2324806;54;21001;-66
2024/02/29 00:32:10;;;;;;;9.55;6.10;;;6.80;69.80;;;;;;2567198;53;20957;-66
2024/02/29 00:34:36;;;;;;;11.50;6.18;;;6.80;70.00;;;;;;2325046;54;21053;-66
2024/02/29 00:37:02;;;;;;;8.90;4.75;;;6.80;70.10;;;;;;2316402;54;21429;-65
2024/02/29 00:39:29;;;;;;;9.13;5.03;;;6.80;70.20;;;;;;2321249;54;21124;-65
2024/02/29 00:41:59;;;;;;;10.30;5.32;;;6.70;70.10;;;;;;2324577;54;20997;-66
2024/02/29 00:44:25;;;;;;;11.82;6.30;;;6.70;70.10;;;;;;2325288;54;20949;-66
2024/02/29 00:46:51;;;;;;;9.02;5.22;;;6.70;70.20;;;;;;2567639;53;20941;-65
2024/02/29 00:49:18;;;;;;;9.02;4.93;;;6.70;70.30;;;;;;2567779;53;20957;-64
2024/02/29 00:51:44;;;;;;;10.48;5.10;;;6.70;70.40;;;;;;2325442;54;21399;-67
2024/02/29 00:54:10;;;;;;;11.60;6.32;;;6.70;70.30;;;;;;2324780;54;21065;-65
2024/02/29 00:56:36;;;;;;;11.18;5.95;;;6.70;70.40;;;;;;2325009;54;21788;-65
2024/02/29 00:59:03;;;;;;;10.90;5.70;;;6.70;70.50;;;;;;2568114;53;20922;-65
2024/02/29 01:01:29;;;;;;;9.80;5.00;;;6.60;70.50;;;;;;2325551;54;21297;-66
2024/02/29 01:03:55;;;;;;;7.62;4.70;;;6.60;70.60;;;;;;2324964;54;20980;-65
2024/02/29 01:06:21;;;;;;;11.68;6.10;;;6.60;70.60;;;;;;2326009;54;21029;-66
2024/02/29 01:08:49;;;;;;;9.65;6.05;;;6.60;70.60;;;;;;2562654;53;20975;-64
2024/02/29 01:11:15;;;;;;;9.30;5.43;;;6.60;70.70;;;;;;2310728;55;21026;-65
2024/02/29 01:13:42;;;;;;;8.70;4.82;;;6.60;70.70;;;;;;2565483;53;21066;-66
2024/02/29 01:16:08;;;;;;;11.40;6.00;;;6.60;70.70;;;;;;2325353;54;20948;-66
2024/02/29 01:18:35;;;;;;;9.98;5.72;;;6.60;70.70;;;;;;2325803;54;20954;-66
2024/02/29 01:21:01;;;;;;;9.85;5.00;;;6.60;70.70;;;;;;2325641;54;20952;-65
2024/02/29 01:23:27;;;;;;;10.07;5.70;;;6.60;70.70;;;;;;2325742;54;20945;-65
2024/02/29 01:25:54;;;;;;;9.55;5.22;;;6.60;70.70;;;;;;2325150;54;20941;-66
2024/02/29 01:28:21;;;;;;;10.82;5.93;;;6.60;70.60;;;;;;2313597;54;21022;-66
2024/02/29 01:30:48;;;;;;;11.25;6.28;;;6.50;70.50;;;;;;2568091;53;21395;-66
2024/02/29 01:33:14;;;;;;;10.98;6.65;;;6.60;70.60;;;;;;2325108;54;20982;-65
2024/02/29 01:35:41;;;;;;;10.88;6.15;;;6.50;70.50;;;;;;2325511;54;21089;-66
2024/02/29 01:38:07;;;;;;;9.93;5.43;;;6.50;70.50;;;;;;2564612;53;21202;-66
2024/02/29 01:40:35;;;;;;;9.57;5.40;;;6.50;70.50;;;;;;2554582;53;21775;-66
2024/02/29 01:43:02;;;;;;;9.05;4.82;;;6.50;70.30;;;;;;2311306;54;21258;-65
2024/02/29 01:45:28;;;;;;;10.00;5.72;;;6.50;70.20;;;;;;2567905;53;21245;-65
2024/02/29 01:47:55;;;;;;;9.15;5.50;;;6.50;70.20;;;;;;2324700;54;20957;-66
2024/02/29 01:50:21;;;;;;;8.57;5.22;;;6.50;70.20;;;;;;2324959;54;21229;-66
2024/02/29 01:52:47;;;;;;;7.95;4.25;;;6.40;70.10;;;;;;2316996;54;20947;-65
2024/02/29 01:55:14;;;;;;;9.43;5.43;;;6.40;70.00;;;;;;2321815;54;21811;-65
2024/02/29 01:57:40;;;;;;;10.32;5.90;;;6.40;69.90;;;;;;2324749;54;20926;-66
2024/02/29 02:00:08;;;;;;;10.27;5.57;;;6.40;69.90;;;;;;2325014;54;20954;-66
2024/02/29 02:02:34;;;;;;;9.50;5.05;;;6.30;69.90;;;;;;2567899;53;20926;-66
2024/02/29 02:05:01;;;;;;;9.35;5.00;;;6.30;69.90;;;;;;2323984;54;22457;-66
2024/02/29 02:07:27;;;;;;;9.73;5.65;;;6.30;69.90;;;;;;2325323;54;20997;-65
2024/02/29 02:09:55;;;;;;;8.55;4.78;;;6.30;69.80;;;;;;2324783;54;20941;-66
2024/02/29 02:12:21;;;;;;;9.25;5.12;;;6.20;69.70;;;;;;2567202;53;21447;-66
2024/02/29 02:14:48;;;;;;;9.55;5.03;;;6.20;69.70;;;;;;2316127;54;21042;-65
2024/02/29 02:17:15;;;;;;;8.80;4.60;;;6.20;69.60;;;;;;2321878;54;20932;-65
2024/02/29 02:19:41;;;;;;;8.55;4.90;;;6.10;69.50;;;;;;2325408;54;20938;-66
2024/02/29 02:22:07;;;;;;;9.23;4.57;;;5.90;69.30;;;;;;2324650;54;21763;-67
2024/02/29 02:24:34;;;;;;;7.78;4.22;;;6.10;69.60;;;;;;2568353;53;20957;-66
2024/02/29 02:27:01;;;;;;;10.65;5.25;;;6.10;69.60;;;;;;2324613;54;20937;-66
2024/02/29 02:29:27;;;;;;;10.07;5.50;;;6.00;69.50;;;;;;2324142;54;21934;-66
2024/02/29 02:31:55;;;;;;;10.00;5.57;;;6.00;69.50;;;;;;2312437;54;20963;-66
2024/02/29 02:34:21;;;;;;;8.93;4.82;;;6.00;69.60;;;;;;2324444;54;20949;-66
2024/02/29 02:36:48;;;;;;;10.55;5.57;;;5.90;69.40;;;;;;2324612;54;21073;-66
2024/02/29 02:39:15;;;;;;;8.77;4.45;;;5.90;69.40;;;;;;2568575;53;20942;-64
2024/02/29 02:41:44;;;;;;;10.68;5.45;;;5.90;69.40;;;;;;2326145;54;21040;-66
2024/02/29 02:44:12;;;;;;;10.55;5.00;;;5.80;69.40;;;;;;2306498;54;21052;-66
2024/02/29 02:46:40;;;;;;;8.10;4.50;;;5.80;69.40;;;;;;2278298;55;21054;-66
2024/02/29 02:49:06;;;;;;;9.40;5.12;;;5.80;69.50;;;;;;2294795;55;21477;-66
2024/02/29 02:51:33;;;;;;;9.25;5.05;;;5.80;69.50;;;;;;2522133;54;20966;-66
2024/02/29 02:53:59;;;;;;;10.48;5.20;;;5.70;69.40;;;;;;2272298;54;21098;-65
2024/02/29 02:56:25;;;;;;;10.45;5.55;;;5.70;69.40;;;;;;2291044;54;20967;-66
2024/02/29 02:58:51;;;;;;;10.00;4.68;;;5.70;69.40;;;;;;2298944;54;20955;-65
2024/02/29 03:01:18;;;;;;;8.90;4.95;;;5.60;69.30;;;;;;2299195;54;20948;-64
2024/02/29 03:03:45;;;;;;;11.30;5.95;;;5.60;69.30;;;;;;2298373;54;21348;-65
2024/02/29 03:06:13;;;;;;;8.27;4.70;;;5.60;69.30;;;;;;2324963;54;20980;-66
2024/02/29 03:08:40;;;;;;;12.40;5.60;;;5.60;69.40;;;;;;2565778;53;21007;-65
2024/02/29 03:11:06;;;;;;;11.20;5.82;;;5.60;69.40;;;;;;2542359;53;21056;-66
2024/02/29 03:13:33;;;;;;;8.32;4.40;;;5.50;69.80;;;;;;2325555;54;20973;-65
2024/02/29 03:15:59;;;;;;;9.88;4.85;;;5.50;69.40;;;;;;2325147;54;20921;-66
2024/02/29 03:18:25;;;;;;;10.32;5.32;;;5.50;69.50;;;;;;2568097;53;21025;-66
2024/02/29 03:20:53;;;;;;;11.50;5.43;;;5.40;69.30;;;;;;2324610;54;21012;-66
2024/02/29 03:23:20;;;;;;;10.45;5.50;;;5.40;69.40;;;;;;2568108;53;21009;-66
2024/02/29 03:25:49;;;;;;;9.43;5.25;;;5.40;69.40;;;;;;2325148;54;21399;-65
2024/02/29 03:28:15;;;;;;;9.23;5.10;;;5.40;69.40;;;;;;2567618;53;20946;-65
2024/02/29 03:30:41;;;;;;;10.75;5.37;;;5.40;69.40;;;;;;2325136;54;20997;-64
2024/02/29 03:33:09;;;;;;;8.32;4.90;;;5.30;69.30;;;;;;2325331;54;20944;-66
2024/02/29 03:35:37;;;;;;;11.05;5.60;;;5.30;69.20;;;;;;2325189;54;20939;-65
2024/02/29 03:38:07;;;;;;;11.63;5.22;;;5.30;69.30;;;;;;2324756;54;21301;-65
2024/02/29 03:40:33;;;;;;;10.57;5.60;;;5.30;69.30;;;;;;2324479;54;20993;-65
2024/02/29 03:43:00;;;;;;;11.38;5.87;;;5.20;69.30;;;;;;2557541;53;21448;-64
2024/02/29 03:45:26;;;;;;;10.27;5.25;;;5.20;69.30;;;;;;2307571;55;21414;-64
2024/02/29 03:47:52;;;;;;;9.18;4.62;;;5.20;69.30;;;;;;2565360;53;21313;-64
2024/02/29 03:50:19;;;;;;;13.38;5.55;;;5.20;69.30;;;;;;2325483;54;20986;-66
2024/02/29 03:52:46;;;;;;;10.20;5.43;;;5.10;69.20;;;;;;2325559;54;20930;-65
2024/02/29 03:55:12;;;;;;;9.73;5.68;;;5.10;69.20;;;;;;2295368;55;21640;-64
2024/02/29 03:57:39;;;;;;;9.77;5.20;;;5.10;69.30;;;;;;2325175;54;20909;-66
2024/02/29 04:00:10;;;;;;;10.23;5.45;;;5.10;69.30;;;;;;2567395;53;20934;-66
2024/02/29 04:02:37;;;;;;;9.82;5.35;;;5.10;69.30;;;;;;2325253;54;21344;-66
2024/02/29 04:05:08;;;;;;;9.48;4.87;;;5.00;69.20;;;;;;2325407;54;21712;-66
2024/02/29 04:07:37;;;;;;;9.45;5.68;;;5.00;69.20;;;;;;2325723;54;21182;-65
2024/02/29 04:10:05;;;;;;;9.85;5.20;;;5.00;69.10;;;;;;2568196;53;20985;-65
2024/02/29 04:12:32;;;;;;;9.77;5.00;;;5.00;69.20;;;;;;2325627;54;21009;-65
2024/02/29 04:15:01;;;;;;;10.73;6.05;;;4.90;69.10;;;;;;2567842;53;21312;-66
2024/02/29 04:17:28;;;;;;;9.30;5.28;;;4.90;69.10;;;;;;2325254;54;20948;-66
2024/02/29 04:19:55;;;;;;;11.12;5.75;;;4.90;69.20;;;;;;2568241;53;20966;-65
2024/02/29 04:22:23;;;;;;;11.15;5.68;;;4.90;69.20;;;;;;2325583;54;20997;-64
2024/02/29 04:24:49;;;;;;;12.13;5.65;;;4.80;69.10;;;;;;2325110;54;20997;-64
2024/02/29 04:27:16;;;;;;;11.05;5.47;;;4.80;69.10;;;;;;2568120;53;20957;-65
2024/02/29 04:29:46;;;;;;;9.15;5.10;;;4.80;69.10;;;;;;2322014;54;20971;-66
2024/02/29 04:32:12;;;;;;;11.18;5.93;;;4.80;69.10;;;;;;2316644;54;20961;-65
2024/02/29 04:34:39;;;;;;;11.15;6.28;;;4.80;69.20;;;;;;2567772;53;20952;-65
2024/02/29 04:37:05;;;;;;;9.43;5.55;;;4.70;69.10;;;;;;2325240;54;20997;-65
2024/02/29 04:39:32;;;;;;;11.80;6.07;;;4.70;69.20;;;;;;2567664;53;20977;-65
2024/02/29 04:41:58;;;;;;;9.55;5.53;;;4.70;69.20;;;;;;2566390;53;21069;-65
2024/02/29 04:44:24;;;;;;;10.80;5.55;;;4.70;69.20;;;;;;2325220;54;21411;-65
2024/02/29 04:46:50;;;;;;;13.27;6.47;;;4.70;69.20;;;;;;2324848;54;20950;-64
2024/02/29 04:49:20;;;;;;;13.20;6.72;;;4.70;69.20;;;;;;2324776;54;21893;-66
2024/02/29 04:51:46;;;;;;;10.63;5.68;;;4.70;69.30;;;;;;2324929;54;20954;-65
2024/02/29 04:54:13;;;;;;;10.55;5.75;;;4.60;69.20;;;;;;2567057;53;21005;-65
2024/02/29 04:56:40;;;;;;;11.82;6.53;;;4.60;69.20;;;;;;2325109;54;21004;-65
2024/02/29 04:59:07;;;;;;;10.07;5.25;;;4.60;69.20;;;;;;2324542;54;20981;-66
2024/02/29 05:01:33;;;;;;;13.55;6.85;;;4.60;69.20;;;;;;2324770;54;21239;-65
2024/02/29 05:03:59;;;;;;;10.27;5.93;;;4.60;69.30;;;;;;2324175;54;20921;-65
2024/02/29 05:06:26;;;;;;;11.82;6.30;;;4.60;69.30;;;;;;2324705;54;20933;-64
2024/02/29 05:08:56;;;;;;;12.50;6.85;;;4.60;69.40;;;;;;2324757;54;20929;-66
2024/02/29 05:11:23;;;;;;;14.15;6.62;;;4.50;69.30;;;;;;2324727;54;20993;-66
2024/02/29 05:13:49;;;;;;;10.55;5.97;;;4.50;69.40;;;;;;2325323;54;20933;-65
2024/02/29 05:16:20;;;;;;;14.07;6.40;;;4.50;69.40;;;;;;2324338;54;21450;-64
2024/02/29 05:18:48;;;;;;;11.68;6.15;;;4.50;69.50;;;;;;2325290;54;20962;-65
2024/02/29 05:21:14;;;;;;;12.18;6.18;;;4.50;69.40;;;;;;2324919;54;20958;-64
2024/02/29 05:23:41;;;;;;;13.02;7.15;;;4.50;69.50;;;;;;2325625;54;20988;-66
2024/02/29 05:26:07;;;;;;;13.65;7.15;;;4.50;69.50;;;;;;2324485;54;20945;-66
2024/02/29 05:28:34;;;;;;;13.35;7.03;;;4.50;69.50;;;;;;2319050;54;21207;-64
2024/02/29 05:31:00;;;;;;;10.90;5.95;;;4.50;69.50;;;;;;2318673;54;20938;-65
2024/02/29 05:33:27;;;;;;;11.00;5.90;;;4.50;69.50;;;;;;2325186;54;20945;-66
2024/02/29 05:35:53;;;;;;;17.42;7.65;;;4.50;69.50;;;;;;2325380;54;20985;-65
2024/02/29 05:38:19;;;;;;;14.95;7.68;;;4.40;69.40;;;;;;2325156;54;20977;-65
2024/02/29 05:40:47;;;;;;;13.73;7.53;;;4.40;69.40;;;;;;2549299;53;20945;-65
2024/02/29 05:43:14;;;;;;;12.13;6.28;;;4.40;69.40;;;;;;2325028;54;21573;-64
2024/02/29 05:45:40;;;;;;;13.25;6.78;;;4.40;69.50;;;;;;2325419;54;21296;-65
2024/02/29 05:48:09;;;;;;;14.82;7.28;;;4.40;69.50;;;;;;2325175;54;21438;-64
2024/02/29 05:50:36;;;;;;;12.82;6.25;;;4.40;69.40;;;;;;2325300;54;20993;-65
2024/02/29 05:53:03;;;;;;;15.10;6.22;;;4.40;69.40;;;;;;2325292;54;21049;-66
2024/02/29 05:55:29;;;;;;;13.57;6.70;;;4.40;69.40;;;;;;2325349;54;20953;-66
2024/02/29 05:57:55;;;;;;;13.40;6.87;;;4.40;69.40;;;;;;2324950;54;21013;-64
2024/02/29 06:00:22;;;;;;;12.77;6.75;;;4.40;69.50;;;;;;2325294;54;20958;-65
2024/02/29 06:02:51;;;;;;;11.18;5.60;;;4.40;69.50;;;;;;2568071;53;21289;-64
2024/02/29 06:05:19;;;;;;;13.65;5.75;;;4.40;69.50;;;;;;2567693;53;21025;-65
2024/02/29 06:07:45;;;;;;;11.75;5.93;;;4.30;69.50;;;;;;2325164;54;20930;-65
2024/02/29 06:10:11;;;;;;;12.27;5.53;;;4.30;69.40;;;;;;2325268;54;20941;-65
2024/02/29 06:12:38;;;;;;;12.55;6.10;;;4.30;69.40;;;;;;2325242;54;20949;-64
2024/02/29 06:15:07;;;;;;;11.75;5.87;;;4.30;69.40;;;;;;2325512;54;21234;-65
2024/02/29 06:17:34;;;;;;;12.05;5.97;;;4.30;69.40;;;;;;2567985;53;20949;-65
2024/02/29 06:20:01;;;;;;;11.73;5.68;;;4.30;69.40;;;;;;2325233;54;21072;-65
2024/02/29 06:22:27;;;;;;;11.30;5.82;;;4.30;69.40;;;;;;2567868;53;21389;-65
2024/02/29 06:24:53;;;;;;;10.63;5.55;;;4.20;69.40;;;;;;2325342;54;20984;-66
2024/02/29 06:27:21;;;;;;;11.15;5.85;;;4.30;69.50;;;;;;2298748;54;20972;-64
2024/02/29 06:29:47;;;;;;;11.98;5.22;;;4.30;69.60;;;;;;2298983;54;20940;-66
2024/02/29 06:32:14;;;;;;;12.52;5.93;;;4.30;69.60;;;;;;2298593;54;21571;-65
2024/02/29 06:34:41;;;;;;;11.63;5.90;;;4.20;69.50;;;;;;2307118;54;21312;-65
2024/02/29 06:37:07;;;;;;;14.73;7.28;;;4.30;69.70;;;;;;2328175;54;21435;-65
2024/02/29 06:39:36;;;;;;;14.20;6.60;;;4.20;69.60;;;;;;2311584;54;21222;-64
2024/02/29 06:42:03;;;;;;;19.05;9.07;;;4.20;69.60;;;;;;2567533;53;20973;-66
2024/02/29 06:44:29;;;;;;;18.15;8.73;;;4.20;69.70;;;;;;2567981;53;20969;-66
2024/02/29 06:46:56;;;;;;;19.40;9.90;;;4.30;69.90;;;;;;2567993;53;21282;-66
2024/02/29 06:49:23;;;;;;;17.42;8.80;;;4.20;69.90;;;;;;2325476;54;20942;-65
2024/02/29 06:51:50;;;;;;;16.40;8.40;;;4.20;70.00;;;;;;2325515;54;20949;-66
2024/02/29 06:54:17;;;;;;;16.33;8.88;;;4.20;70.20;;;;;;2325335;54;20966;-65
2024/02/29 06:56:45;;;;;;;15.05;7.97;;;4.30;71.10;;;;;;2325548;54;21540;-65
2024/02/29 06:59:11;;;;;;;14.85;7.97;;;4.30;70.50;;;;;;2325544;54;21702;-66
2024/02/29 07:01:37;;;;;;;13.23;6.97;;;4.30;70.70;;;;;;2325408;54;20953;-65
2024/02/29 07:04:07;;;;;;;13.68;6.75;;;4.40;70.90;;;;;;2325058;54;20945;-65
2024/02/29 07:06:34;;;;;;;14.80;6.25;;;4.40;71.10;;;;;;2324211;54;20950;-66
2024/02/29 07:09:01;;;;;;;10.95;6.05;;;4.40;71.20;;;;;;2568004;53;21217;-66
2024/02/29 07:11:30;;;;;;;10.65;5.87;;;4.50;71.40;;;;;;2567431;53;20918;-65
2024/02/29 07:13:57;;;;;;;10.13;5.80;;;4.50;71.50;;;;;;2325561;54;21056;-65
2024/02/29 07:16:25;;;;;;;9.98;6.18;;;4.60;71.70;;;;;;2325256;54;21012;-66
2024/02/29 07:18:51;;;;;;;13.35;5.78;;;4.60;71.80;;;;;;2325421;54;20949;-65
2024/02/29 07:21:17;;;;;;;9.57;5.72;;;4.70;71.90;;;;;;2567825;53;21376;-65
2024/02/29 07:23:44;;;;;;;7.85;4.68;;;4.70;72.00;;;;;;2325304;54;20962;-64
2024/02/29 07:26:10;;;;;;;8.02;4.93;;;4.80;72.10;;;;;;2326007;54;21072;-65
2024/02/29 07:28:37;;;;;;;11.00;4.78;;;4.80;72.10;;;;;;2324732;54;20933;-65
2024/02/29 07:31:05;;;;;;;11.45;5.18;;;4.90;72.20;;;;;;2325440;54;20946;-66
2024/02/29 07:33:34;;;;;;;13.10;4.78;;;4.90;72.10;;;;;;2325247;54;20960;-64
2024/02/29 07:36:01;;;;;;;11.32;5.25;;;5.00;72.20;;;;;;2559780;53;21415;-65
2024/02/29 07:38:27;;;;;;;9.10;4.68;;;5.00;72.20;;;;;;2319298;54;21340;-66
2024/02/29 07:40:53;;;;;;;21.85;6.20;;;5.10;72.20;;;;;;2293998;56;22336;-66
2024/02/29 07:43:20;;;;;;;8.65;5.15;;;5.10;72.20;;;;;;2568303;53;20936;-66
2024/02/29 07:45:47;;;;;;;8.93;4.55;;;5.20;72.30;;;;;;2326097;54;20990;-65
2024/02/29 07:48:14;;;;;;;10.57;6.32;;;5.20;72.30;;;;;;2568664;53;21253;-65
2024/02/29 07:50:40;;;;;;;14.60;7.05;;;5.30;72.40;;;;;;2325386;54;21516;-66
2024/02/29 07:53:07;;;;;;;13.77;7.78;;;5.40;72.60;;;;;;2567558;53;20937;-65
2024/02/29 07:55:33;;;;;;;16.45;9.00;;;5.40;72.60;;;;;;2567782;53;21924;-66
2024/02/29 07:58:00;;;;;;;14.68;8.30;;;5.50;72.80;;;;;;2322597;54;20942;-65
2024/02/29 08:00:29;;;;;;;13.07;6.47;;;5.50;73.00;;;;;;2560739;53;20993;-66
2024/02/29 08:02:56;;;;;;;13.00;7.55;;;5.60;73.10;;;;;;2325725;54;20945;-66
2024/02/29 08:05:25;;;;;;;13.48;7.32;;;5.70;73.30;;;;;;2568013;53;20946;-66
2024/02/29 08:07:51;;;;;;;12.32;6.65;;;5.80;73.30;;;;;;2325530;54;20949;-66
2024/02/29 08:10:17;;;;;;;14.85;7.37;;;5.80;73.30;;;;;;2568349;53;20970;-65
2024/02/29 08:12:44;;;;;;;22.27;11.75;;;5.90;73.30;;;;;;2567821;53;20975;-66
2024/02/29 08:15:13;;;;;;;22.77;12.48;;;5.90;73.30;;;;;;2325050;54;21453;-66
2024/02/29 08:17:39;;;;;;;16.30;9.85;;;6.00;73.50;;;;;;2324845;54;21061;-66
2024/02/29 08:20:10;;;;;;;22.83;12.43;;;6.10;73.60;;;;;;2315788;54;20947;-64
2024/02/29 08:22:36;;;;;;;24.45;14.40;;;6.20;73.70;;;;;;2322170;54;21755;-64
2024/02/29 08:25:03;;;;;;;22.37;13.95;;;6.30;73.80;;;;;;2327955;54;20977;-66
2024/02/29 08:27:29;;;;;;;24.42;13.62;;;6.40;74.00;;;;;;2310140;54;20977;-64
2024/02/29 08:29:56;;;;;;;19.35;12.10;;;6.40;74.00;;;;;;2321835;54;21263;-64
2024/02/29 08:32:22;;;;;;;20.00;11.15;;;6.50;74.20;;;;;;2316638;54;20992;-66
2024/02/29 08:34:49;;;;;;;16.65;10.65;;;6.60;74.30;;;;;;2324102;54;21021;-65
2024/02/29 08:37:24;;;;;;;19.52;11.05;;;6.70;74.30;;;;;;2325722;54;20989;-66
2024/02/29 08:39:51;;;;;;;17.85;10.80;;;6.80;74.30;;;;;;2325148;54;21867;-65
2024/02/29 08:42:17;;;;;;;20.37;11.52;;;6.80;74.30;;;;;;2567892;53;20937;-66
2024/02/29 08:44:44;;;;;;;17.65;10.38;;;6.90;74.50;;;;;;2324692;54;21689;-65
2024/02/29 08:47:10;;;;;;;17.50;9.38;;;7.00;74.70;;;;;;2325377;54;21255;-65
2024/02/29 08:49:37;;;;;;;17.73;9.95;;;7.10;74.80;;;;;;2567680;53;20941;-65
2024/02/29 08:52:07;;;;;;;17.10;9.73;;;7.20;74.90;;;;;;2325428;54;21411;-66
2024/02/29 08:54:34;;;;;;;15.88;8.63;;;7.20;74.90;;;;;;2324921;54;21249;-66
2024/02/29 08:57:04;;;;;;;15.80;8.48;;;7.30;75.00;;;;;;2325356;54;20945;-64
2024/02/29 08:59:30;;;;;;;20.98;11.20;;;7.40;75.20;;;;;;2294789;55;20934;-66
2024/02/29 09:01:58;;;;;;;20.85;12.50;;;7.50;75.40;;;;;;2325030;54;20937;-65
2024/02/29 09:04:25;;;;;;;23.15;12.98;;;7.60;75.90;;;;;;2325352;54;21709;-65
2024/02/29 09:06:52;;;;;;;22.35;13.30;;;7.80;76.60;;;;;;2325395;54;21001;-65
2024/02/29 09:09:20;;;;;;;25.80;14.65;;;7.90;77.20;;;;;;2568950;53;20937;-66
2024/02/29 09:11:46;;;;;;;27.10;14.27;;;8.10;78.00;;;;;;2324976;54;21436;-65
2024/02/29 09:14:12;;;;;;;26.30;14.95;;;8.20;78.40;;;;;;2325912;54;20938;-65
2024/02/29 09:16:39;;;;;;;23.77;13.20;;;8.40;78.50;;;;;;2325463;54;20953;-66
2024/02/29 09:19:05;;;;;;;22.23;11.88;;;8.60;78.50;;;;;;2325733;54;21740;-66
2024/02/29 09:21:31;;;;;;;18.55;10.68;;;8.70;78.20;;;;;;2325587;54;20937;-65
2024/02/29 09:23:58;;;;;;;17.27;10.18;;;8.90;78.00;;;;;;2325877;54;20917;-65
2024/02/29 09:26:25;;;;;;;14.73;8.85;;;9.00;77.80;;;;;;2567961;53;21633;-65
2024/02/29 09:28:51;;;;;;;16.40;9.27;;;9.10;77.80;;;;;;2325382;54;21265;-66
2024/02/29 09:31:18;;;;;;;15.73;9.43;;;9.20;77.80;;;;;;2568780;53;21490;-67
2024/02/29 09:33:46;;;;;;;16.27;9.00;;;9.30;77.80;;;;;;2325416;54;21037;-65
2024/02/29 09:36:13;;;;;;;17.10;9.77;;;9.40;77.90;;;;;;2325861;54;21245;-65
2024/02/29 09:38:40;;;;;;;16.58;9.52;;;9.60;78.00;;;;;;2325348;54;21005;-67
2024/02/29 09:41:07;;;;;;;14.87;8.57;;;9.70;77.80;;;;;;2565861;53;20957;-66
2024/02/29 09:43:39;;;;;;;14.67;8.53;;;9.80;77.70;;;;;;2328214;54;20953;-66
2024/02/29 09:46:06;;;;;;;14.35;8.35;;;9.90;77.80;;;;;;2310582;54;21391;-66
2024/02/29 09:48:32;;;;;;;13.60;9.07;;;10.00;76.80;;;;;;2294922;54;21000;-66
2024/02/29 09:50:59;;;;;;;14.55;8.88;;;10.10;77.10;;;;;;2295168;54;20944;-66
2024/02/29 09:53:27;;;;;;;14.25;9.05;;;10.20;77.20;;;;;;2535600;54;20995;-65
2024/02/29 09:55:55;;;;;;;15.77;9.68;;;10.40;77.10;;;;;;2289312;54;20987;-65
2024/02/29 09:58:21;;;;;;;18.10;10.82;;;10.50;77.40;;;;;;2519151;54;21312;-66
2024/02/29 10:00:48;;;;;;;18.58;10.27;;;10.60;77.90;;;;;;2309452;54;20955;-66
2024/02/29 10:03:18;;;;;;;16.37;9.55;;;10.80;78.40;;;;;;2306500;54;21199;-65
2024/02/29 10:05:45;;;;;;;13.40;8.20;;;10.90;78.20;;;;;;2556220;53;22016;-65
2024/02/29 10:08:12;;;;;;;14.82;9.25;;;11.10;78.10;;;;;;2297812;54;21068;-66
2024/02/29 10:10:39;;;;;;;14.57;8.93;;;11.20;77.70;;;;;;2315343;54;21744;-66
2024/02/29 10:13:06;;;;;;;13.57;8.05;;;11.30;77.30;;;;;;2326007;55;20928;-67
2024/02/29 10:15:33;;;;;;;14.73;8.57;;;11.40;77.20;;;;;;2569114;53;20912;-65
2024/02/29 10:18:00;;;;;;;12.27;8.05;;;11.50;77.10;;;;;;2325995;55;21280;-66
2024/02/29 10:20:26;;;;;;;15.25;8.73;;;11.60;76.90;;;;;;2326277;55;21406;-67
2024/02/29 10:22:52;;;;;;;14.15;8.27;;;11.70;77.00;;;;;;2325214;55;20956;-67
2024/02/29 10:25:20;;;;;;;11.77;7.20;;;11.80;77.20;;;;;;2326034;55;21231;-67
2024/02/29 10:27:46;;;;;;;11.98;7.97;;;11.90;77.10;;;;;;2325419;55;20944;-67
2024/02/29 10:30:14;;;;;;;14.40;9.10;;;12.00;77.10;;;;;;2326063;55;21471;-67
2024/02/29 10:32:44;;;;;;;13.93;9.15;;;12.10;77.10;;;;;;2567480;53;21001;-66
2024/02/29 10:35:24;;;;;;;18.12;11.20;;;12.20;76.90;;;;;;2326296;55;20975;-66
2024/02/29 10:37:51;;;;;;;16.20;10.35;;;12.30;77.10;;;;;;2325023;55;21486;-67
2024/02/29 10:40:22;;;;;;;14.82;10.23;;;12.40;78.10;;;;;;2324487;55;20933;-66
2024/02/29 10:42:55;;;;;;;16.37;10.98;;;12.60;78.30;;;;;;2324830;55;21063;-66
2024/02/29 10:45:23;;;;;;;17.70;11.65;;;12.70;78.70;;;;;;2326266;55;20915;-67
2024/02/29 10:48:16;;;;;;;15.30;9.32;;;12.90;79.00;;;;;;2325629;55;21895;-67
2024/02/29 10:50:52;;;;;;;;;;;13.00;77.80;;;;;;2329326;55;20944;-68
2024/02/29 10:55:09;;;;;;;11.77;7.62;;;13.20;76.60;;;;;;2568899;53;20402;-67
2024/02/29 10:58:01;;;;;;;11.02;6.80;;;13.30;76.50;;;;;;2325796;55;20952;-66
2024/02/29 11:00:28;;;;;;;14.27;9.30;;;13.40;76.50;;;;;;2326549;55;21023;-65
2024/02/29 11:02:55;;;;;;;15.70;9.65;;;13.50;77.40;;;;;;2325404;55;20967;-67
2024/02/29 11:05:21;;;;;;;15.25;9.13;;;13.50;77.70;;;;;;2568892;53;20951;-67
2024/02/29 11:07:47;;;;;;;17.00;10.85;;;13.60;77.90;;;;;;2325335;55;20949;-67
2024/02/29 11:10:17;;;;;;;14.95;9.75;;;13.80;77.80;;;;;;2328149;55;21319;-67
2024/02/29 11:12:44;;;;;;;14.95;9.55;;;13.80;77.50;;;;;;2325146;55;21003;-67
2024/02/29 11:15:11;;;;;;;15.48;9.90;;;13.90;77.30;;;;;;2326029;55;21380;-67
2024/02/29 11:17:39;;;;;;;15.82;10.13;;;14.00;77.20;;;;;;2326024;55;20944;-67
2024/02/29 11:20:09;;;;;;;15.63;9.77;;;14.00;77.00;;;;;;2568594;53;21713;-67
2024/02/29 11:22:39;;;;;;;15.68;9.43;;;14.20;77.20;;;;;;2568582;53;21324;-67
2024/02/29 11:25:12;;;;;;;14.63;9.75;;;14.20;77.10;;;;;;2325804;55;21426;-65
2024/02/29 11:27:51;;;;;;;15.48;9.75;;;14.30;77.00;;;;;;2325691;55;21002;-67
2024/02/29 11:30:20;;;;;;;14.57;9.80;;;14.40;76.10;;;;;;2568337;53;21232;-67
2024/02/29 11:32:47;;;;;;;15.88;10.25;;;14.40;76.80;;;;;;2568490;53;21398;-67
2024/02/29 11:35:16;;;;;;;13.55;8.63;;;14.50;76.80;;;;;;2325304;55;21843;-67
2024/02/29 11:37:44;;;;;;;12.93;8.60;;;14.50;76.80;;;;;;2325849;55;20995;-66
2024/02/29 11:40:15;;;;;;;13.73;9.23;;;14.60;76.80;;;;;;2568741;53;20936;-67
2024/02/29 11:42:42;;;;;;;15.63;10.03;;;14.70;76.70;;;;;;2326398;55;20979;-67
2024/02/29 11:45:17;;;;;;;15.82;10.38;;;14.80;76.80;;;;;;2568307;53;20924;-67
2024/02/29 11:47:44;;;;;;;16.05;10.70;;;14.80;77.00;;;;;;2325905;55;21445;-67
2024/02/29 11:50:10;;;;;;;14.27;9.55;;;14.90;76.90;;;;;;2569039;53;21424;-66
2024/02/29 11:52:37;;;;;;;15.88;10.65;;;15.00;76.70;;;;;;2325979;55;20987;-68
2024/02/29 11:55:04;;;;;;;15.70;10.05;;;15.00;76.50;;;;;;2325780;55;21296;-66
2024/02/29 11:57:30;;;;;;;14.68;9.63;;;15.10;76.50;;;;;;2325976;55;20948;-68
2024/02/29 11:59:58;;;;;;;15.20;10.27;;;15.10;76.40;;;;;;2325813;54;20956;-66
2024/02/29 12:02:26;;;;;;;13.98;9.43;;;15.20;76.30;;;;;;2326030;55;20944;-66
2024/02/29 12:04:52;;;;;;;15.88;10.23;;;15.20;76.50;;;;;;2297038;54;21516;-68
2024/02/29 12:07:19;;;;;;;14.23;9.70;;;15.30;76.80;;;;;;2326174;55;21475;-67
2024/02/29 12:09:45;;;;;;;14.13;9.52;;;15.40;76.80;;;;;;2568725;53;20940;-67
2024/02/29 12:12:12;;;;;;;15.18;8.55;;;15.50;76.80;;;;;;2299239;54;20964;-66
2024/02/29 12:14:39;;;;;;;14.80;9.73;;;15.50;76.40;;;;;;2298775;54;21819;-65
2024/02/29 12:17:08;;;;;;;17.83;11.40;;;15.60;76.60;;;;;;2297978;54;20960;-66
2024/02/29 12:19:39;;;;;;;16.73;9.65;;;15.70;77.30;;;;;;2536181;54;20964;-66
2024/02/29 12:22:11;;;;;;;13.15;9.02;;;15.80;77.30;;;;;;2299123;54;20964;-67
2024/02/29 12:24:38;;;;;;;14.38;10.07;;;15.90;77.50;;;;;;2289765;54;21149;-67
2024/02/29 12:27:05;;;;;;;13.85;9.90;;;16.00;78.30;;;;;;2526146;54;21673;-67
2024/02/29 12:29:32;;;;;;;13.75;9.45;;;16.10;78.40;;;;;;2554001;53;21462;-67
2024/02/29 12:31:59;;;;;;;11.82;8.63;;;16.30;78.20;;;;;;2324331;54;21258;-68
2024/02/29 12:34:29;;;;;;;13.32;8.82;;;16.40;78.00;;;;;;2568297;53;20961;-68
2024/02/29 12:36:56;;;;;;;13.68;9.40;;;16.50;77.50;;;;;;2567914;53;20998;-67
2024/02/29 12:39:26;;;;;;;15.27;10.07;;;16.60;78.10;;;;;;2325716;54;21009;-66
2024/02/29 12:41:52;;;;;;;14.98;10.48;;;16.70;77.90;;;;;;2325031;54;21800;-68
2024/02/29 12:44:21;;;;;;;14.52;9.85;;;16.80;78.20;;;;;;2324999;54;20973;-66
2024/02/29 12:46:52;;;;;;;15.43;10.50;;;16.90;77.70;;;;;;2324829;54;20999;-67